Time;durP1;ratioP1;P1;durP2;ratioP2;P2;SDS_P1;SDS_P2;PMS_P1;PMS_P2;Temp;Humidity;BMP_temperature;BMP_pressure;BME280_temperature;BME280_humidity;BME280_pressure;Samples;Min_cycle;Max_cycle;Signal;HPM_P1;HPM_P2
2024/01/14 00:01:40;;;;;;;53.58;20.65;;;-3.20;1.00;;;;;;7376882;19;20009;-74
2024/01/14 00:04:12;;;;;;;50.05;20.35;;;-3.20;1.00;;;;;;7378151;19;20014;-72
2024/01/14 00:06:42;;;;;;;54.28;21.73;;;-3.20;1.00;;;;;;7377567;19;19998;-70
2024/01/14 00:13:03;;;;;;;53.38;18.35;;;-3.20;1.00;;;;;;6865104;19;2003780;-69
2024/01/14 00:15:33;;;;;;;53.55;20.38;;;-3.30;1.00;;;;;;7377494;19;20141;-70
2024/01/14 00:18:03;;;;;;;58.05;20.05;;;-3.20;1.00;;;;;;7377366;19;20002;-69
2024/01/14 00:20:36;;;;;;;54.67;20.40;;;-3.20;1.00;;;;;;7377146;19;20015;-70
2024/01/14 00:23:06;;;;;;;59.80;22.10;;;-3.20;1.00;;;;;;7377919;19;20015;-69
2024/01/14 00:25:36;;;;;;;59.80;22.52;;;-3.20;1.00;;;;;;7384580;19;20505;-68
2024/01/14 00:28:06;;;;;;;51.35;21.25;;;-3.10;1.00;;;;;;7381023;19;20010;-69
2024/01/14 00:30:36;;;;;;;54.47;21.55;;;-3.20;1.00;;;;;;7384822;19;20459;-69
2024/01/14 00:33:07;;;;;;;59.03;22.90;;;-3.20;1.00;;;;;;7381631;19;20010;-69
2024/01/14 00:35:40;;;;;;;48.85;20.77;;;-3.20;1.00;;;;;;7380226;19;20010;-69
2024/01/14 00:38:15;;;;;;;51.65;21.13;;;-3.20;1.00;;;;;;7383057;19;20014;-69
2024/01/14 00:44:31;;;;;;;49.65;18.10;;;-3.30;1.00;;;;;;6873574;19;2004076;-68
2024/01/14 00:47:01;;;;;;;44.10;18.50;;;-3.30;1.00;;;;;;7383831;19;20081;-69
2024/01/14 00:49:31;;;;;;;54.78;19.98;;;-3.30;1.00;;;;;;7384395;19;20073;-68
2024/01/14 00:52:04;;;;;;;56.08;18.80;;;-3.30;1.00;;;;;;7383395;19;20052;-69
2024/01/14 00:54:34;;;;;;;49.83;19.65;;;-3.40;1.00;;;;;;7382711;19;20021;-68
2024/01/14 00:57:04;;;;;;;48.85;18.48;;;-3.40;1.00;;;;;;7383046;19;20487;-69
2024/01/14 00:59:34;;;;;;;54.83;20.63;;;-3.50;1.00;;;;;;7382009;19;20014;-69
2024/01/14 01:02:05;;;;;;;55.05;21.73;;;-3.40;1.00;;;;;;7382791;19;20025;-69
2024/01/14 01:04:35;;;;;;;55.13;19.20;;;-3.30;1.00;;;;;;7382018;19;20091;-69
2024/01/14 01:07:07;;;;;;;53.80;20.77;;;-3.20;1.00;;;;;;7383486;19;20006;-69
2024/01/14 01:09:41;;;;;;;48.10;20.02;;;-3.40;1.00;;;;;;7379843;19;20010;-71
2024/01/14 01:12:11;;;;;;;55.15;20.73;;;-3.30;1.00;;;;;;7382864;19;20007;-73
2024/01/14 01:14:41;;;;;;;53.10;21.50;;;-3.40;1.00;;;;;;7391588;19;20003;-72
2024/01/14 01:17:11;;;;;;;56.08;20.17;;;-3.40;1.00;;;;;;7390508;19;20014;-71
2024/01/14 01:19:41;;;;;;;47.45;20.10;;;-3.30;1.00;;;;;;7382247;19;20021;-71
2024/01/14 01:26:16;;;;;;;50.05;18.75;;;-3.40;1.00;;;;;;6870260;19;2004924;-70
2024/01/14 01:28:46;;;;;;;52.85;20.20;;;-3.40;1.00;;;;;;7382244;19;20803;-70
2024/01/14 01:31:16;;;;;;;56.33;20.70;;;-3.30;1.00;;;;;;7381791;19;20021;-70
2024/01/14 01:34:00;;;;;;;49.80;18.08;;;-3.30;1.00;;;;;;7381908;19;20027;-70
2024/01/14 01:36:30;;;;;;;49.40;18.08;;;-3.40;1.00;;;;;;7381830;19;20043;-69
2024/01/14 01:39:03;;;;;;;55.15;20.30;;;-3.30;1.00;;;;;;7380953;19;20013;-69
2024/01/14 01:41:34;;;;;;;52.50;19.98;;;-3.30;1.00;;;;;;7380872;19;20007;-69
2024/01/14 01:44:04;;;;;;;57.63;20.08;;;-3.40;1.00;;;;;;7379722;19;20082;-70
2024/01/14 01:46:34;;;;;;;48.75;19.02;;;-3.40;1.00;;;;;;7381367;19;20444;-70
2024/01/14 01:49:05;;;;;;;54.88;20.55;;;-3.40;1.00;;;;;;7382702;19;20021;-68
2024/01/14 01:51:35;;;;;;;51.63;20.30;;;-3.40;1.00;;;;;;7382461;19;20002;-69
2024/01/14 01:54:10;;;;;;;55.05;19.98;;;-3.40;1.00;;;;;;7382708;19;20006;-69
2024/01/14 01:56:41;;;;;;;50.50;19.15;;;-3.40;1.00;;;;;;7382636;19;20093;-69
2024/01/14 01:59:12;;;;;;;49.42;18.92;;;-3.40;1.00;;;;;;7379218;19;20367;-70
2024/01/14 02:01:42;;;;;;;47.05;18.23;;;-3.40;1.00;;;;;;7381777;19;20006;-69
2024/01/14 02:04:13;;;;;;;51.45;18.52;;;-3.40;1.00;;;;;;7381124;19;20377;-69
2024/01/14 02:06:43;;;;;;;43.03;18.23;;;-3.50;1.00;;;;;;7382390;19;20047;-70
2024/01/14 02:09:16;;;;;;;52.00;19.50;;;-3.30;1.00;;;;;;7380636;19;20354;-70
2024/01/14 02:11:46;;;;;;;53.45;20.48;;;-3.40;1.00;;;;;;7381768;19;20406;-69
2024/01/14 02:14:16;;;;;;;58.35;20.13;;;-3.50;1.00;;;;;;7381848;19;20011;-69
2024/01/14 02:16:46;;;;;;;51.97;18.63;;;-3.40;1.00;;;;;;7381049;19;20010;-70
2024/01/14 02:19:16;;;;;;;54.13;20.65;;;-3.40;1.00;;;;;;7379494;19;20023;-70
2024/01/14 02:21:51;;;;;;;50.30;19.85;;;-3.40;1.00;;;;;;7380753;19;20010;-69
2024/01/14 02:24:28;;;;;;;;;;;-3.40;1.00;;;;;;7381743;19;20075;-69
2024/01/14 02:26:59;;;;;;;51.33;19.70;;;-3.40;1.00;;;;;;7380260;19;19922;-70
2024/01/14 02:29:31;;;;;;;51.67;18.92;;;-3.50;1.00;;;;;;7380030;19;20009;-69
2024/01/14 02:32:01;;;;;;;55.63;20.27;;;-3.50;1.00;;;;;;7380903;19;20749;-69
2024/01/14 02:34:32;;;;;;;50.25;19.85;;;-3.40;1.00;;;;;;7380005;19;20376;-69
2024/01/14 02:37:02;;;;;;;54.40;19.50;;;-3.40;1.00;;;;;;7379717;19;20012;-70
2024/01/14 02:39:36;;;;;;;56.65;20.48;;;-3.50;1.00;;;;;;7379835;19;20893;-69
2024/01/14 02:42:06;;;;;;;46.78;18.88;;;-3.50;1.00;;;;;;7380706;19;20013;-69
2024/01/14 02:44:36;;;;;;;55.72;19.25;;;-3.40;1.00;;;;;;7381021;19;20011;-69
2024/01/14 02:47:06;;;;;;;50.78;18.63;;;-3.30;1.00;;;;;;7379425;19;20018;-68
2024/01/14 02:49:36;;;;;;;49.25;19.20;;;-3.40;1.00;;;;;;7381229;19;20017;-70
2024/01/14 02:52:07;;;;;;;53.15;18.23;;;-3.40;1.00;;;;;;7380352;19;20011;-70
2024/01/14 02:54:39;;;;;;;49.15;18.52;;;-3.40;1.00;;;;;;7381713;19;20010;-70
2024/01/14 02:57:09;;;;;;;54.38;18.60;;;-3.50;1.00;;;;;;7378524;19;20039;-69
2024/01/14 02:59:39;;;;;;;49.33;19.65;;;-3.60;1.00;;;;;;7379765;19;20475;-69
2024/01/14 03:02:10;;;;;;;56.70;21.20;;;-3.50;1.00;;;;;;7380033;19;20031;-69
2024/01/14 03:04:40;;;;;;;50.30;19.67;;;-3.50;1.00;;;;;;7379141;19;20746;-69
2024/01/14 03:07:10;;;;;;;55.20;19.92;;;-3.50;1.00;;;;;;7379483;19;20002;-69
2024/01/14 03:09:42;;;;;;;60.25;21.13;;;-3.50;1.00;;;;;;7376788;19;20485;-69
2024/01/14 03:12:12;;;;;;;49.42;19.30;;;-3.50;1.00;;;;;;7378484;19;20487;-69
2024/01/14 03:14:42;;;;;;;61.50;21.92;;;-3.50;1.00;;;;;;7379484;19;20031;-68
2024/01/14 03:17:13;;;;;;;59.72;21.98;;;-3.50;1.00;;;;;;7376203;19;20011;-70
2024/01/14 03:19:43;;;;;;;58.08;19.02;;;-3.50;1.00;;;;;;7378428;19;20018;-71
2024/01/14 03:22:14;;;;;;;57.70;21.38;;;-3.50;1.00;;;;;;7378033;19;20014;-70
2024/01/14 03:24:47;;;;;;;53.63;20.98;;;-3.50;1.00;;;;;;7378387;19;20464;-68
2024/01/14 03:27:17;;;;;;;60.53;22.17;;;-3.60;1.00;;;;;;7379217;19;20010;-69
2024/01/14 03:29:47;;;;;;;58.88;22.40;;;-3.50;1.00;;;;;;7378135;19;20045;-69
2024/01/14 03:32:17;;;;;;;52.22;20.55;;;-3.60;1.00;;;;;;7384271;19;20043;-70
2024/01/14 03:34:47;;;;;;;61.97;22.25;;;-3.50;1.00;;;;;;7389588;19;20010;-70
2024/01/14 03:37:17;;;;;;;60.00;22.88;;;-3.60;1.00;;;;;;7381337;19;20010;-69
2024/01/14 03:39:51;;;;;;;64.78;22.77;;;-3.50;1.00;;;;;;7379668;19;20015;-69
2024/01/14 03:42:21;;;;;;;61.67;21.20;;;-3.40;1.00;;;;;;7379360;19;20007;-69
2024/01/14 03:44:52;;;;;;;65.93;22.20;;;-3.60;1.00;;;;;;7379051;19;20014;-69
2024/01/14 03:47:22;;;;;;;61.28;21.77;;;-3.60;1.00;;;;;;7377995;19;20014;-69
2024/01/14 03:49:52;;;;;;;69.38;22.38;;;-3.70;1.00;;;;;;7377510;19;20014;-69
2024/01/14 03:52:22;;;;;;;56.97;21.65;;;-3.60;1.00;;;;;;7378503;19;20017;-68
2024/01/14 03:54:54;;;;;;;43.70;16.70;;;-3.70;1.00;;;;;;7377921;19;20609;-70
2024/01/14 03:57:24;;;;;;;63.60;22.02;;;-3.70;1.00;;;;;;7378912;19;20089;-69
2024/01/14 03:59:55;;;;;;;72.32;20.80;;;-3.60;1.00;;;;;;7375099;19;20032;-71
2024/01/14 04:02:25;;;;;;;66.40;22.50;;;-3.70;1.00;;;;;;7378486;19;20010;-68
2024/01/14 04:04:55;;;;;;;46.38;18.02;;;-3.70;1.00;;;;;;7377899;19;20014;-69
2024/01/14 04:07:25;;;;;;;60.92;20.52;;;-3.70;1.00;;;;;;7378230;19;20010;-69
2024/01/14 04:09:58;;;;;;;67.75;21.13;;;-3.70;1.00;;;;;;7377348;19;20018;-69
2024/01/14 04:12:28;;;;;;;64.15;21.77;;;-3.60;1.00;;;;;;7378616;19;20010;-70
2024/01/14 04:14:58;;;;;;;56.97;20.02;;;-3.60;1.00;;;;;;7379652;19;20028;-68
2024/01/14 04:17:29;;;;;;;51.33;20.50;;;-3.70;1.00;;;;;;7377943;19;20045;-69
2024/01/14 04:19:59;;;;;;;59.17;23.10;;;-3.70;1.00;;;;;;7378220;19;20470;-69
2024/01/14 04:22:29;;;;;;;56.53;20.55;;;-3.60;1.00;;;;;;7378903;19;20022;-70
2024/01/14 04:25:02;;;;;;;63.03;22.42;;;-3.70;1.00;;;;;;7376866;19;20007;-70
2024/01/14 04:27:32;;;;;;;64.18;22.15;;;-3.60;1.00;;;;;;7378256;19;20019;-70
2024/01/14 04:30:03;;;;;;;62.78;22.92;;;-3.60;1.00;;;;;;7376516;19;20006;-69
2024/01/14 04:32:33;;;;;;;67.28;21.45;;;-3.60;1.00;;;;;;7378013;19;20800;-69
2024/01/14 04:35:04;;;;;;;57.78;21.75;;;-3.50;1.00;;;;;;7377378;19;20437;-70
2024/01/14 04:37:35;;;;;;;73.47;25.08;;;-3.60;1.00;;;;;;7378298;19;20039;-69
2024/01/14 04:40:10;;;;;;;61.13;22.75;;;-3.60;1.00;;;;;;7376373;19;20032;-68
2024/01/14 04:42:40;;;;;;;66.10;22.77;;;-3.60;1.00;;;;;;7378340;19;20013;-69
2024/01/14 04:45:10;;;;;;;62.28;21.35;;;-3.60;1.00;;;;;;7374672;19;20006;-69
2024/01/14 04:47:40;;;;;;;56.67;21.40;;;-3.70;1.00;;;;;;7379387;19;20006;-68
2024/01/14 04:50:12;;;;;;;60.92;21.75;;;-3.60;1.00;;;;;;7378072;19;20030;-69
2024/01/14 04:52:42;;;;;;;65.95;23.50;;;-3.60;1.00;;;;;;7375109;19;20006;-68
2024/01/14 04:55:15;;;;;;;62.78;23.38;;;-3.60;1.00;;;;;;7379084;19;20487;-69
2024/01/14 04:57:46;;;;;;;61.85;20.70;;;-3.60;1.00;;;;;;7374972;19;20014;-69
2024/01/14 05:00:17;;;;;;;59.60;21.42;;;-3.60;1.00;;;;;;7376445;19;20006;-70
2024/01/14 05:02:47;;;;;;;67.03;21.20;;;-3.70;1.00;;;;;;7377577;19;20063;-69
2024/01/14 05:05:17;;;;;;;74.35;23.35;;;-3.60;1.00;;;;;;7375809;19;20093;-68
2024/01/14 05:07:48;;;;;;;71.32;25.17;;;-3.60;1.00;;;;;;7376086;19;20014;-70
2024/01/14 05:10:20;;;;;;;62.83;23.17;;;-3.60;1.00;;;;;;7379286;19;20011;-70
2024/01/14 05:12:50;;;;;;;66.38;24.75;;;-3.60;1.00;;;;;;7383296;19;20039;-71
2024/01/14 05:15:20;;;;;;;65.53;22.83;;;-3.70;1.00;;;;;;7383062;19;20387;-70
2024/01/14 05:17:52;;;;;;;62.97;23.65;;;-3.70;1.00;;;;;;7383407;19;20036;-70
2024/01/14 05:20:22;;;;;;;65.57;22.88;;;-3.60;1.00;;;;;;7383398;19;20105;-70
2024/01/14 05:22:52;;;;;;;68.20;22.95;;;-3.60;1.00;;;;;;7384383;19;20090;-69
2024/01/14 05:25:25;;;;;;;62.05;22.25;;;-3.70;1.00;;;;;;7383169;19;20401;-70
2024/01/14 05:27:55;;;;;;;68.53;24.88;;;-3.80;1.00;;;;;;7383420;19;20167;-69
2024/01/14 05:30:25;;;;;;;69.97;21.00;;;-3.70;1.00;;;;;;7383119;19;20018;-70
2024/01/14 05:32:55;;;;;;;72.75;25.77;;;-3.80;1.00;;;;;;7382488;19;20018;-70
2024/01/14 05:35:25;;;;;;;79.22;24.52;;;-3.70;1.00;;;;;;7382904;19;20035;-70
2024/01/14 05:37:56;;;;;;;73.68;24.92;;;-3.70;1.00;;;;;;7383472;19;20021;-68
2024/01/14 05:40:29;;;;;;;80.10;25.83;;;-3.70;1.00;;;;;;7381138;19;20086;-70
2024/01/14 05:42:59;;;;;;;66.40;23.50;;;-3.80;1.00;;;;;;7383110;19;20121;-69
2024/01/14 05:45:29;;;;;;;68.63;24.35;;;-3.70;1.00;;;;;;7382681;19;20717;-69
2024/01/14 05:47:59;;;;;;;78.55;25.45;;;-3.60;1.00;;;;;;7383076;19;20052;-69
2024/01/14 05:50:29;;;;;;;66.75;24.33;;;-3.60;1.00;;;;;;7381960;19;20018;-69
2024/01/14 05:52:59;;;;;;;73.70;25.80;;;-3.60;1.00;;;;;;7393106;19;20007;-69
2024/01/14 05:55:32;;;;;;;65.72;24.83;;;-3.50;1.00;;;;;;7388543;19;20018;-69
2024/01/14 05:58:02;;;;;;;72.20;25.40;;;-3.40;1.00;;;;;;7381841;19;20011;-69
2024/01/14 06:00:32;;;;;;;64.00;24.85;;;-3.50;1.00;;;;;;7381866;19;20018;-69
2024/01/14 06:03:02;;;;;;;73.80;23.55;;;-3.50;1.00;;;;;;7382378;19;20112;-70
2024/01/14 06:05:32;;;;;;;77.95;27.13;;;-3.50;1.00;;;;;;7380721;19;20006;-69
2024/01/14 06:08:03;;;;;;;75.80;27.33;;;-3.40;1.00;;;;;;7380892;19;20074;-69
2024/01/14 06:10:35;;;;;;;84.43;26.42;;;-3.40;1.00;;;;;;7381024;19;20010;-69
2024/01/14 06:13:08;;;;;;;74.68;26.33;;;-3.50;1.00;;;;;;7382245;19;20003;-69
2024/01/14 06:15:39;;;;;;;72.65;27.15;;;-3.60;1.00;;;;;;7380536;19;20014;-69
2024/01/14 06:18:09;;;;;;;82.90;26.95;;;-3.60;1.00;;;;;;7381194;19;20021;-70
2024/01/14 06:20:39;;;;;;;82.20;27.33;;;-3.60;1.00;;;;;;7379673;19;20009;-70
2024/01/14 06:23:09;;;;;;;77.68;27.48;;;-3.50;1.00;;;;;;7379498;19;20091;-70
2024/01/14 06:25:41;;;;;;;86.95;28.85;;;-3.40;1.00;;;;;;7378467;19;20006;-69
2024/01/14 06:28:11;;;;;;;75.95;28.35;;;-3.50;1.00;;;;;;7380402;19;20477;-69
2024/01/14 06:30:41;;;;;;;88.40;30.30;;;-3.40;1.00;;;;;;7381518;19;20074;-69
2024/01/14 06:33:12;;;;;;;70.45;24.83;;;-3.40;1.00;;;;;;7382463;19;20045;-69
2024/01/14 06:35:42;;;;;;;74.75;25.95;;;-3.50;1.00;;;;;;7378061;19;20041;-69
2024/01/14 06:38:12;;;;;;;76.65;26.60;;;-3.60;1.00;;;;;;7382254;19;20388;-69
2024/01/14 06:40:45;;;;;;;76.53;27.67;;;-3.50;1.00;;;;;;7374954;19;20073;-69
2024/01/14 06:43:31;;;;;;;79.22;26.75;;;-3.50;1.00;;;;;;6866614;19;2003844;-69
2024/01/14 06:46:02;;;;;;;80.15;26.17;;;-3.40;1.00;;;;;;7379429;19;20011;-68
2024/01/14 06:48:32;;;;;;;79.13;26.30;;;-3.50;1.00;;;;;;7379897;19;20010;-69
2024/01/14 06:51:04;;;;;;;79.25;28.13;;;-3.50;1.00;;;;;;7379725;19;20022;-69
2024/01/14 06:53:34;;;;;;;71.65;26.45;;;-3.50;1.00;;;;;;7380062;19;20026;-69
2024/01/14 06:56:07;;;;;;;71.00;26.98;;;-3.60;1.00;;;;;;7379297;19;20047;-69
2024/01/14 06:58:38;;;;;;;60.85;22.70;;;-3.60;1.00;;;;;;7381031;19;20031;-69
2024/01/14 07:01:08;;;;;;;66.25;22.85;;;-3.50;1.00;;;;;;7378565;19;20070;-69
2024/01/14 07:03:44;;;;;;;69.13;24.85;;;-3.50;1.00;;;;;;7380274;19;20535;-69
2024/01/14 07:06:14;;;;;;;63.45;23.88;;;-3.40;1.00;;;;;;7375911;19;19998;-68
2024/01/14 07:08:44;;;;;;;63.55;24.10;;;-3.40;1.00;;;;;;7380462;19;20531;-69
2024/01/14 07:11:17;;;;;;;63.78;23.73;;;-3.40;1.00;;;;;;7378194;19;20017;-69
2024/01/14 07:13:47;;;;;;;62.15;23.60;;;-3.50;1.00;;;;;;7375622;19;20094;-69
2024/01/14 07:16:17;;;;;;;69.65;22.67;;;-3.50;1.00;;;;;;7378926;19;20021;-69
2024/01/14 07:18:47;;;;;;;63.70;23.23;;;-3.60;1.00;;;;;;7379208;19;20014;-69
2024/01/14 07:21:20;;;;;;;69.07;23.73;;;-3.50;1.00;;;;;;7377392;19;20459;-68
2024/01/14 07:23:50;;;;;;;62.95;23.63;;;-3.50;1.00;;;;;;7378129;19;20456;-70
2024/01/14 07:26:23;;;;;;;59.10;22.60;;;-3.40;1.00;;;;;;7379474;19;20425;-70
2024/01/14 07:28:54;;;;;;;61.80;20.92;;;-3.50;1.00;;;;;;7379102;19;20078;-70
2024/01/14 07:31:30;;;;;;;63.33;22.33;;;-3.40;1.00;;;;;;7378260;19;20498;-70
2024/01/14 07:34:00;;;;;;;66.00;23.77;;;-3.40;1.00;;;;;;7378588;19;20021;-69
2024/01/14 07:36:31;;;;;;;55.05;23.08;;;-3.40;1.00;;;;;;7380006;19;20016;-69
2024/01/14 07:39:02;;;;;;;56.67;22.98;;;-3.50;1.00;;;;;;7378853;19;20368;-69
2024/01/14 07:41:34;;;;;;;57.97;20.92;;;-3.50;1.00;;;;;;7378163;19;20014;-70
2024/01/14 07:44:06;;;;;;;52.83;19.95;;;-3.40;1.00;;;;;;7379672;19;20029;-70
2024/01/14 07:46:36;;;;;;;57.50;21.75;;;-3.40;1.00;;;;;;7379084;19;20078;-69
2024/01/14 07:49:06;;;;;;;57.55;19.73;;;-3.40;1.00;;;;;;7379307;19;20010;-69
2024/01/14 07:51:36;;;;;;;62.00;21.65;;;-3.40;1.00;;;;;;7379489;19;20093;-69
2024/01/14 07:54:07;;;;;;;53.45;21.83;;;-3.30;1.00;;;;;;7378547;19;20007;-70
2024/01/14 07:56:40;;;;;;;47.20;18.92;;;-3.40;1.00;;;;;;7378527;19;20485;-69
2024/01/14 07:59:10;;;;;;;47.33;18.05;;;-3.30;1.00;;;;;;7378797;19;20734;-70
2024/01/14 08:01:40;;;;;;;48.08;18.23;;;-3.40;1.00;;;;;;7378579;19;20031;-70
2024/01/14 08:04:10;;;;;;;45.85;18.85;;;-3.40;1.00;;;;;;7377848;19;20082;-70
2024/01/14 08:06:40;;;;;;;46.20;17.80;;;-3.40;1.00;;;;;;7378390;19;20022;-68
2024/01/14 08:09:11;;;;;;;48.55;18.83;;;-3.40;1.00;;;;;;7378507;19;20002;-69
2024/01/14 08:11:44;;;;;;;50.35;20.98;;;-3.40;1.00;;;;;;7388869;19;20093;-70
2024/01/14 08:14:14;;;;;;;48.03;20.50;;;-3.30;1.00;;;;;;7386542;19;20031;-69
2024/01/14 08:16:44;;;;;;;53.60;19.88;;;-3.30;1.00;;;;;;7376442;19;20021;-69
2024/01/14 08:19:14;;;;;;;53.20;22.20;;;-3.20;1.00;;;;;;7379456;19;20010;-70
2024/01/14 08:21:45;;;;;;;47.97;18.33;;;-3.30;1.00;;;;;;7377525;19;20007;-70
2024/01/14 08:24:15;;;;;;;47.92;18.48;;;-3.40;1.00;;;;;;7376657;19;20577;-70
2024/01/14 08:26:49;;;;;;;56.67;22.00;;;-3.30;1.00;;;;;;7378706;19;20011;-70
2024/01/14 08:29:19;;;;;;;57.00;21.70;;;-3.20;1.00;;;;;;7374786;19;20498;-70
2024/01/14 08:31:55;;;;;;;51.35;20.55;;;-3.20;1.00;;;;;;7377016;19;20036;-70
2024/01/14 08:34:25;;;;;;;46.53;18.45;;;-3.30;1.00;;;;;;7376737;19;20023;-69
2024/01/14 08:36:55;;;;;;;48.60;19.08;;;-3.20;1.00;;;;;;7377422;19;20483;-70
2024/01/14 08:39:25;;;;;;;61.47;21.77;;;-3.10;1.00;;;;;;7376669;19;20386;-70
2024/01/14 08:41:58;;;;;;;55.60;20.80;;;-3.00;1.00;;;;;;7375711;19;20065;-69
2024/01/14 08:44:28;;;;;;;55.42;22.25;;;-3.10;1.00;;;;;;7377600;19;20094;-69
2024/01/14 08:46:59;;;;;;;52.90;19.88;;;-3.00;1.00;;;;;;7384406;19;20022;-69
2024/01/14 08:49:29;;;;;;;55.53;23.60;;;-3.00;1.00;;;;;;7383320;19;20052;-69
2024/01/14 08:52:01;;;;;;;60.67;24.33;;;-2.80;1.00;;;;;;7384783;19;20015;-69
2024/01/14 08:54:33;;;;;;;55.20;22.67;;;-2.80;1.00;;;;;;7383380;19;20018;-69
2024/01/14 08:57:07;;;;;;;57.08;23.00;;;-2.70;1.00;;;;;;7382841;19;20015;-69
2024/01/14 08:59:37;;;;;;;56.75;21.75;;;-2.60;1.00;;;;;;7382727;19;20025;-69
2024/01/14 09:02:07;;;;;;;60.10;22.92;;;-2.70;1.00;;;;;;7384702;19;20014;-70
2024/01/14 09:04:37;;;;;;;56.65;24.85;;;-2.60;1.00;;;;;;7383133;19;20476;-69
2024/01/14 09:07:08;;;;;;;55.08;23.23;;;-2.50;1.00;;;;;;7383490;19;20423;-70
2024/01/14 09:09:38;;;;;;;56.58;23.00;;;-2.50;1.00;;;;;;7380428;19;20025;-70
2024/01/14 09:12:10;;;;;;;61.20;23.20;;;-2.50;1.00;;;;;;7384308;19;20017;-69
2024/01/14 09:14:41;;;;;;;60.45;23.02;;;-2.40;1.00;;;;;;7381506;19;20014;-69
2024/01/14 09:17:11;;;;;;;54.50;22.48;;;-2.40;1.00;;;;;;7384337;19;20441;-70
2024/01/14 09:19:41;;;;;;;52.30;21.88;;;-2.40;1.00;;;;;;7382544;19;20038;-71
2024/01/14 09:22:12;;;;;;;49.83;20.98;;;-2.40;1.00;;;;;;7385288;19;20011;-70
2024/01/14 09:24:45;;;;;;;58.92;27.52;;;-2.40;1.00;;;;;;7382807;19;20019;-70
2024/01/14 09:27:18;;;;;;;54.20;23.03;;;-2.30;1.00;;;;;;7385063;19;20054;-69
2024/01/14 09:29:48;;;;;;;53.40;21.77;;;-2.20;1.00;;;;;;7376931;19;21117;-69
2024/01/14 09:32:18;;;;;;;53.70;23.33;;;-2.10;1.00;;;;;;7383191;19;20018;-71
2024/01/14 09:34:48;;;;;;;51.85;22.90;;;-2.00;1.00;;;;;;7381971;19;20018;-69
2024/01/14 09:37:18;;;;;;;58.88;24.75;;;-2.00;1.00;;;;;;7352062;19;20011;-69
2024/01/14 09:39:49;;;;;;;53.85;23.02;;;-1.90;1.00;;;;;;7381718;19;20018;-69
2024/01/14 09:42:28;;;;;;;54.25;26.48;;;-1.90;1.00;;;;;;7382297;19;20022;-69
2024/01/14 09:45:02;;;;;;;53.75;24.15;;;-1.80;1.00;;;;;;7382182;19;20003;-70
2024/01/14 09:47:35;;;;;;;56.45;24.20;;;-1.70;1.00;;;;;;7382420;19;20010;-70
2024/01/14 09:50:07;;;;;;;53.47;25.70;;;-1.60;1.00;;;;;;7380577;19;20006;-70
2024/01/14 09:52:38;;;;;;;60.97;27.83;;;-1.70;1.00;;;;;;7381648;19;20533;-69
2024/01/14 09:55:10;;;;;;;48.50;22.23;;;-1.70;1.00;;;;;;7380992;19;20015;-69
2024/01/14 09:57:47;;;;;;;54.80;26.23;;;-1.50;1.00;;;;;;7379487;19;20030;-68
2024/01/14 10:00:18;;;;;;;53.85;25.00;;;-1.50;1.00;;;;;;7379576;19;20041;-70
2024/01/14 10:02:48;;;;;;;59.38;27.05;;;-1.50;1.00;;;;;;7380085;19;20018;-70
2024/01/14 10:05:19;;;;;;;55.00;25.33;;;-1.40;1.00;;;;;;7381903;19;20002;-69
2024/01/14 10:07:49;;;;;;;60.90;25.55;;;-1.60;1.00;;;;;;7380969;19;20017;-68
2024/01/14 10:10:19;;;;;;;52.03;26.45;;;-1.70;1.00;;;;;;7381533;19;20017;-69
2024/01/14 10:12:52;;;;;;;49.83;24.10;;;-1.70;1.00;;;;;;7380451;19;20010;-71
2024/01/14 10:15:22;;;;;;;53.08;23.25;;;-1.60;1.00;;;;;;7380883;19;20014;-70
2024/01/14 10:17:52;;;;;;;56.85;27.45;;;-1.50;1.00;;;;;;7379378;19;20078;-69
2024/01/14 10:20:23;;;;;;;48.47;22.73;;;-1.50;1.00;;;;;;7380001;19;20117;-70
2024/01/14 10:22:50;;;;;;;50.30;24.38;;;-1.50;1.00;;;;;;7379843;19;20061;-70
2024/01/14 10:25:21;;;;;;;49.15;23.63;;;-1.60;1.00;;;;;;7381163;19;20040;-69
2024/01/14 10:27:53;;;;;;;56.60;26.58;;;-1.50;1.00;;;;;;7380072;19;20487;-69
2024/01/14 10:30:23;;;;;;;49.83;23.23;;;-1.40;1.00;;;;;;7385672;19;20447;-69
2024/01/14 10:32:55;;;;;;;51.15;25.08;;;-1.40;1.00;;;;;;7387438;19;20006;-71
2024/01/14 10:35:47;;;;;;;53.08;25.50;;;-1.20;1.00;;;;;;7382125;19;20006;-69
2024/01/14 10:38:18;;;;;;;48.85;23.27;;;-1.10;1.00;;;;;;7382024;19;20409;-70
2024/01/14 10:40:48;;;;;;;54.45;24.88;;;-1.20;1.00;;;;;;7375809;19;20013;-70
2024/01/14 10:43:24;;;;;;;53.47;23.00;;;-1.10;1.00;;;;;;7378777;19;20007;-69
2024/01/14 10:45:55;;;;;;;48.97;24.70;;;-1.10;1.00;;;;;;7379586;19;20085;-70
2024/01/14 10:48:28;;;;;;;46.70;22.08;;;-1.10;1.00;;;;;;7380851;19;20006;-69
2024/01/14 10:51:04;;;;;;;47.38;22.88;;;-1.10;1.00;;;;;;7378784;19;20039;-71
2024/01/14 10:53:44;;;;;;;49.40;25.25;;;-1.00;1.00;;;;;;7381777;19;20011;-69
2024/01/14 10:56:18;;;;;;;51.70;24.23;;;-1.10;1.00;;;;;;7353359;19;20002;-72
2024/01/14 10:58:55;;;;;;;50.53;24.77;;;-1.10;1.00;;;;;;7364534;19;20011;-70
2024/01/14 11:01:27;;;;;;;50.17;25.05;;;-1.10;1.00;;;;;;7372620;19;20014;-72
2024/01/14 11:03:58;;;;;;;52.85;25.30;;;-1.00;1.00;;;;;;7371689;19;20018;-71
2024/01/14 11:06:30;;;;;;;52.58;23.17;;;-1.00;1.00;;;;;;7368887;19;20043;-71
2024/01/14 11:09:01;;;;;;;55.80;24.17;;;-1.00;1.00;;;;;;7371153;19;20019;-70
2024/01/14 11:11:38;;;;;;;54.08;25.33;;;-0.90;1.00;;;;;;7370160;19;20106;-72
2024/01/14 11:14:19;;;;;;;51.75;24.75;;;-0.80;1.00;;;;;;7370628;19;20488;-72
2024/01/14 11:16:59;;;;;;;60.85;28.20;;;-0.60;1.00;;;;;;7370615;19;20394;-70
2024/01/14 11:19:34;;;;;;;47.67;24.70;;;-0.50;1.00;;;;;;7365438;19;20007;-70
2024/01/14 11:22:19;;;;;;;49.25;23.30;;;-0.70;1.00;;;;;;7363887;19;20025;-70
2024/01/14 11:25:05;;;;;;;49.88;23.67;;;-0.70;1.00;;;;;;6856227;19;2003960;-71
2024/01/14 11:27:37;;;;;;;49.58;23.05;;;-0.70;1.00;;;;;;7370524;19;20039;-70
2024/01/14 11:30:19;;;;;;;47.42;24.98;;;-0.80;1.00;;;;;;7370688;19;27287;-72
2024/01/14 11:32:50;;;;;;;52.25;25.58;;;-0.80;1.00;;;;;;7366849;19;20035;-71
2024/01/14 11:35:37;;;;;;;50.97;23.88;;;-0.80;1.00;;;;;;7369435;19;20014;-71
2024/01/14 11:38:08;;;;;;;50.58;24.17;;;-0.50;1.00;;;;;;7371004;19;22408;-71
2024/01/14 11:40:39;;;;;;;52.17;24.70;;;-0.60;1.00;;;;;;7370520;19;20033;-71
2024/01/14 11:43:10;;;;;;;47.75;24.00;;;-0.40;1.00;;;;;;7367869;19;20018;-73
2024/01/14 11:45:42;;;;;;;50.67;24.27;;;-0.40;1.00;;;;;;7370159;19;20090;-72
2024/01/14 11:48:14;;;;;;;43.97;23.50;;;-0.50;1.00;;;;;;7369253;19;20010;-72
2024/01/14 11:50:51;;;;;;;51.25;24.42;;;-0.60;1.00;;;;;;7370677;19;20482;-71
2024/01/14 11:53:25;;;;;;;52.55;24.17;;;-0.30;1.00;;;;;;7366100;19;20578;-71
2024/01/14 11:55:56;;;;;;;52.00;24.27;;;0.00;1.00;;;;;;7372284;19;20019;-72
2024/01/14 11:58:31;;;;;;;48.58;22.80;;;0.10;1.00;;;;;;7367806;19;20014;-71
2024/01/14 12:01:05;;;;;;;46.70;21.90;;;0.10;1.00;;;;;;7366067;19;20014;-70
2024/01/14 12:03:37;;;;;;;54.05;23.60;;;0.10;1.00;;;;;;7369439;19;20074;-71
2024/01/14 12:06:08;;;;;;;46.58;22.95;;;-0.10;1.00;;;;;;7367497;19;20018;-70
2024/01/14 12:08:40;;;;;;;47.55;22.23;;;0.10;1.00;;;;;;7366926;19;20014;-71
2024/01/14 12:11:11;;;;;;;45.58;22.33;;;0.20;1.00;;;;;;7360882;19;20117;-70
2024/01/14 12:13:44;;;;;;;46.17;22.50;;;0.20;1.00;;;;;;7365230;19;20371;-72
2024/01/14 12:16:19;;;;;;;50.63;22.83;;;0.30;1.00;;;;;;7366004;19;20077;-72
2024/01/14 12:18:51;;;;;;;40.65;21.50;;;0.30;1.00;;;;;;7363034;19;20022;-71
2024/01/14 12:21:24;;;;;;;44.80;22.00;;;0.30;1.00;;;;;;7362330;19;20085;-70
2024/01/14 12:24:02;;;;;;;45.88;22.48;;;0.30;1.00;;;;;;7364707;19;20348;-71
2024/01/14 12:26:34;;;;;;;42.13;21.20;;;0.30;1.00;;;;;;7366829;19;20018;-72
2024/01/14 12:29:05;;;;;;;46.97;22.83;;;0.30;1.00;;;;;;7362551;19;20463;-71
2024/01/14 12:31:39;;;;;;;48.15;21.95;;;0.50;1.00;;;;;;7364881;19;20035;-71
2024/01/14 12:34:26;;;;;;;43.08;21.45;;;0.10;1.00;;;;;;7356375;19;20014;-70
2024/01/14 12:36:57;;;;;;;44.15;19.80;;;0.10;1.00;;;;;;7365002;19;20090;-72
2024/01/14 12:39:28;;;;;;;46.03;21.48;;;0.40;1.00;;;;;;7369234;19;20003;-71
2024/01/14 12:42:00;;;;;;;46.58;21.42;;;0.30;1.00;;;;;;7366896;19;20077;-71
2024/01/14 12:44:34;;;;;;;42.90;20.52;;;0.40;1.00;;;;;;7369347;19;20117;-71
2024/01/14 12:47:11;;;;;;;47.17;21.95;;;0.50;1.00;;;;;;7367163;19;20499;-71
2024/01/14 12:49:45;;;;;;;40.50;20.80;;;0.40;1.00;;;;;;7368001;19;20014;-72
2024/01/14 12:52:16;;;;;;;;;;;0.50;1.00;;;;;;7370142;19;20019;-72
2024/01/14 12:54:51;;;;;;;42.88;22.13;;;0.60;1.00;;;;;;7370383;19;19915;-71
2024/01/14 12:57:23;;;;;;;;;;;0.40;1.00;;;;;;7344368;19;20015;-71
2024/01/14 12:59:55;;;;;;;45.40;22.63;;;0.10;1.00;;;;;;7366901;19;19933;-71
2024/01/14 13:02:30;;;;;;;51.28;21.35;;;0.20;1.00;;;;;;7370176;19;20027;-71
2024/01/14 13:05:01;;;;;;;45.35;22.40;;;0.20;1.00;;;;;;7345496;19;20010;-70
2024/01/14 13:07:33;;;;;;;45.40;22.00;;;0.40;1.00;;;;;;7367235;19;20085;-71
2024/01/14 13:10:04;;;;;;;48.65;23.30;;;0.30;1.00;;;;;;7368115;19;20018;-72
2024/01/14 13:12:35;;;;;;;41.95;20.83;;;0.30;1.00;;;;;;7366957;19;20087;-72